Time;durP1;ratioP1;P1;durP2;ratioP2;P2;SDS_P1;SDS_P2;PMS_P1;PMS_P2;Temp;Humidity;BMP_temperature;BMP_pressure;BME280_temperature;BME280_humidity;BME280_pressure;Samples;Min_cycle;Max_cycle;Signal;HPM_P1;HPM_P2
2022/07/23 00:00:53;;;;;;;2.15;0.82;;;;;;;26.45;34.23;101940.03;5099614;28;20032;-45
2022/07/23 00:03:21;;;;;;;1.70;0.85;;;;;;;26.39;34.39;101932.00;5100318;28;21402;-45
2022/07/23 00:05:49;;;;;;;2.85;0.90;;;;;;;26.38;34.47;101928.50;5100663;28;20036;-52
2022/07/23 00:08:17;;;;;;;1.73;0.82;;;;;;;26.32;34.50;101938.00;5082193;28;20036;-48
2022/07/23 00:10:46;;;;;;;2.67;0.80;;;;;;;26.27;34.51;101930.03;5099831;28;20036;-44
2022/07/23 00:13:14;;;;;;;1.23;0.70;;;;;;;26.19;34.53;101922.00;5100945;28;20109;-45
2022/07/23 00:15:42;;;;;;;4.82;1.02;;;;;;;26.13;34.68;101908.75;5081859;28;20040;-50
2022/07/23 00:18:10;;;;;;;3.03;1.00;;;;;;;26.09;34.96;101927.94;5082831;28;20027;-48
2022/07/23 00:20:39;;;;;;;2.30;1.05;;;;;;;26.19;34.62;101935.16;5103404;28;20043;-50
2022/07/23 00:23:07;;;;;;;5.75;1.27;;;;;;;26.16;34.99;101944.75;5086316;28;20031;-46
2022/07/23 00:25:34;;;;;;;1.65;0.85;;;;;;;26.12;35.01;101932.38;5086129;28;20031;-52
2022/07/23 00:28:03;;;;;;;3.00;1.00;;;;;;;26.15;34.80;101938.56;5103954;28;20027;-46
2022/07/23 00:30:32;;;;;;;2.35;1.05;;;;;;;26.15;34.80;101932.44;5103361;28;20126;-49
2022/07/23 00:33:03;;;;;;;2.45;1.10;;;;;;;26.15;34.83;101935.06;5085773;28;20024;-45
2022/07/23 00:35:33;;;;;;;3.55;1.00;;;;;;;26.17;34.57;101920.22;5085261;28;20081;-45
2022/07/23 00:38:03;;;;;;;1.92;1.02;;;;;;;26.22;34.47;101939.59;5104171;28;20038;-45
2022/07/23 00:40:32;;;;;;;1.38;0.73;;;;;;;26.24;34.51;101929.97;5102699;28;20042;-48
2022/07/23 00:43:00;;;;;;;2.28;0.90;;;;;;;26.21;34.42;101922.06;5085570;28;20028;-45
2022/07/23 00:45:29;;;;;;;2.63;1.00;;;;;;;26.18;34.67;101919.34;5103534;28;20047;-49
2022/07/23 00:47:56;;;;;;;2.05;1.10;;;;;;;26.24;34.75;101924.72;5103588;28;20031;-48
2022/07/23 00:50:25;;;;;;;2.97;1.15;;;;;;;26.15;34.80;101908.78;5102767;28;20035;-45
2022/07/23 00:52:54;;;;;;;2.88;1.25;;;;;;;26.13;34.75;101919.28;5103471;28;20602;-51
2022/07/23 00:55:22;;;;;;;4.15;1.00;;;;;;;26.13;34.60;101915.75;5085224;28;20557;-48
2022/07/23 00:57:52;;;;;;;2.13;1.23;;;;;;;25.96;35.00;101911.00;5103594;28;20031;-45
2022/07/23 01:00:20;;;;;;;2.65;1.13;;;;;;;25.91;35.11;101918.81;5084683;28;20035;-46
2022/07/23 01:02:48;;;;;;;1.60;0.88;;;;;;;25.88;35.10;101900.34;5103264;28;20066;-49
2022/07/23 01:05:21;;;;;;;2.85;1.25;;;;;;;25.99;34.80;101910.19;5102964;28;20055;-50
2022/07/23 01:07:51;;;;;;;2.17;0.90;;;;;;;26.04;34.95;101908.53;5085088;28;20130;-48
2022/07/23 01:10:40;;;;;;;2.45;1.25;;;;;;;26.12;34.65;101914.88;5103045;28;20360;-49
2022/07/23 01:13:09;;;;;;;2.83;0.90;;;;;;;26.19;34.73;101911.47;5103202;28;20122;-54
2022/07/23 01:15:38;;;;;;;1.73;0.85;;;;;;;26.15;34.79;101908.78;5102413;28;20043;-45
2022/07/23 01:18:07;;;;;;;2.25;0.90;;;;;;;26.01;34.60;101879.53;5103170;28;20028;-47
2022/07/23 01:20:36;;;;;;;1.90;1.05;;;;;;;26.12;34.61;101899.09;5102491;28;20539;-48
2022/07/23 01:23:03;;;;;;;2.25;1.10;;;;;;;26.02;34.59;101891.84;5102253;28;20043;-51
2022/07/23 01:25:31;;;;;;;1.33;0.98;;;;;;;26.03;35.01;101902.41;5102804;28;20039;-52
2022/07/23 01:28:00;;;;;;;4.22;0.98;;;;;;;26.03;34.74;101904.13;5103185;28;20031;-50
2022/07/23 01:30:28;;;;;;;1.77;0.82;;;;;;;26.08;34.87;101905.13;5101194;28;20043;-47
2022/07/23 01:32:56;;;;;;;1.52;0.90;;;;;;;25.96;34.50;101881.22;5102467;28;20149;-52
2022/07/23 01:35:25;;;;;;;3.55;0.95;;;;;;;26.08;34.58;101900.72;5102460;28;20072;-46
2022/07/23 01:37:53;;;;;;;3.35;1.05;;;;;;;26.10;34.72;101898.16;5084591;28;20031;-47
2022/07/23 01:40:22;;;;;;;2.63;1.45;;;;;;;26.08;34.72;101897.22;5101689;28;20498;-54
2022/07/23 01:42:50;;;;;;;1.45;0.68;;;;;;;26.06;34.83;101901.56;5102678;28;20086;-50
2022/07/23 01:45:19;;;;;;;3.47;0.85;;;;;;;26.12;34.71;101914.88;5102328;28;20495;-50
2022/07/23 01:47:46;;;;;;;2.17;1.05;;;;;;;26.11;34.48;101904.28;5102707;28;20062;-52
2022/07/23 01:50:15;;;;;;;2.08;0.93;;;;;;;26.12;34.59;101906.97;5083178;28;20035;-46
2022/07/23 01:52:43;;;;;;;5.55;1.02;;;;;;;26.15;34.38;101917.53;5102523;28;20431;-49
2022/07/23 01:55:11;;;;;;;1.67;0.82;;;;;;;26.06;34.67;101917.34;5102292;28;20027;-52
2022/07/23 01:57:40;;;;;;;3.17;1.15;;;;;;;26.06;34.82;101912.09;5102131;28;20035;-50
2022/07/23 02:00:08;;;;;;;2.35;1.02;;;;;;;26.06;34.53;101912.09;5101705;28;20024;-52
2022/07/23 02:02:36;;;;;;;1.67;0.85;;;;;;;25.92;34.41;101889.03;5101822;28;20054;-47
2022/07/23 02:05:03;;;;;;;2.35;0.98;;;;;;;26.08;34.41;101907.75;5101955;28;20039;-49
2022/07/23 02:07:31;;;;;;;1.35;0.70;;;;;;;26.03;34.59;101899.78;5102238;28;20031;-46
2022/07/23 02:09:58;;;;;;;1.98;0.88;;;;;;;25.85;34.85;101895.03;5101585;28;20038;-53
2022/07/23 02:12:27;;;;;;;1.73;0.88;;;;;;;25.85;34.63;101896.78;5102285;28;20032;-46
2022/07/23 02:14:55;;;;;;;1.83;0.85;;;;;;;25.74;34.96;101892.19;5083709;28;20094;-47
2022/07/23 02:17:23;;;;;;;1.52;0.95;;;;;;;25.73;34.84;101889.53;5102060;28;20077;-51
2022/07/23 02:19:50;;;;;;;1.92;0.90;;;;;;;25.74;35.05;101886.06;5101440;28;20143;-48
2022/07/23 02:22:18;;;;;;;2.13;0.98;;;;;;;25.79;34.89;101887.91;5101676;28;20063;-50
2022/07/23 02:24:46;;;;;;;2.35;0.98;;;;;;;25.84;34.68;101898.50;5101457;28;20039;-50
2022/07/23 02:27:14;;;;;;;2.42;1.00;;;;;;;25.89;34.68;101880.22;5101765;28;20031;-50
2022/07/23 02:29:41;;;;;;;1.67;0.75;;;;;;;25.96;34.50;101881.22;5101427;28;20159;-48
2022/07/23 02:32:08;;;;;;;2.35;1.08;;;;;;;25.86;34.36;101875.78;5101011;28;20040;-49
2022/07/23 02:34:36;;;;;;;1.42;0.80;;;;;;;25.76;34.70;101879.09;5101275;28;20585;-50
2022/07/23 02:37:04;;;;;;;5.43;1.13;;;;;;;25.83;34.42;101873.06;5101814;28;20042;-53
2022/07/23 02:39:32;;;;;;;3.00;1.05;;;;;;;25.74;34.57;101868.53;5101282;28;21373;-48
2022/07/23 02:41:59;;;;;;;2.90;1.10;;;;;;;25.75;34.89;101875.56;5082032;28;20578;-51
2022/07/23 02:44:27;;;;;;;2.08;1.00;;;;;;;25.75;34.96;101887.81;5100803;28;20058;-53
2022/07/23 02:46:55;;;;;;;2.15;0.80;;;;;;;25.79;34.58;101892.31;5101294;28;20031;-48
2022/07/23 02:49:24;;;;;;;2.08;1.25;;;;;;;25.77;34.54;101884.38;5101629;28;20036;-47
2022/07/23 02:51:52;;;;;;;2.15;0.95;;;;;;;25.87;34.28;101876.69;5082231;28;20031;-48
2022/07/23 02:54:20;;;;;;;2.30;1.05;;;;;;;25.86;34.36;101883.66;5083101;28;20036;-48
2022/07/23 02:56:50;;;;;;;5.72;1.02;;;;;;;25.83;34.32;101883.59;5101089;28;20042;-51
2022/07/23 02:59:19;;;;;;;1.83;0.90;;;;;;;25.85;34.20;101879.25;5101499;28;20515;-52
2022/07/23 03:01:46;;;;;;;1.42;0.70;;;;;;;25.86;34.26;101886.28;5100240;28;20063;-50
2022/07/23 03:04:15;;;;;;;1.63;0.80;;;;;;;25.80;34.33;101880.94;5101201;28;20099;-50
2022/07/23 03:06:42;;;;;;;1.98;0.93;;;;;;;25.66;34.59;101883.28;5100684;28;20035;-52
2022/07/23 03:09:10;;;;;;;2.70;0.90;;;;;;;25.67;34.45;101885.03;5101178;28;20432;-51
2022/07/23 03:11:39;;;;;;;1.30;0.70;;;;;;;25.66;34.71;101887.63;5100493;28;20482;-47
2022/07/23 03:14:07;;;;;;;2.00;0.95;;;;;;;25.79;34.38;101892.31;5100960;28;20032;-48
2022/07/23 03:16:34;;;;;;;2.85;0.93;;;;;;;25.73;34.30;101898.28;5100853;28;20097;-48
2022/07/23 03:19:01;;;;;;;5.35;1.00;;;;;;;25.78;34.53;101901.03;5101397;28;20385;-53
2022/07/23 03:21:30;;;;;;;2.33;0.85;;;;;;;25.74;34.58;101896.56;5081721;28;20034;-45
2022/07/23 03:23:58;;;;;;;1.70;0.70;;;;;;;25.86;34.15;101893.31;5100521;28;20067;-45
2022/07/23 03:26:26;;;;;;;0.93;0.57;;;;;;;25.83;34.18;101896.72;5100876;28;20031;-51
2022/07/23 03:28:54;;;;;;;2.35;0.98;;;;;;;25.75;34.26;101893.09;5100917;28;20140;-54
2022/07/23 03:31:22;;;;;;;1.35;0.80;;;;;;;25.64;34.27;101884.97;5100083;28;20031;-54
2022/07/23 03:33:51;;;;;;;1.23;0.70;;;;;;;25.70;34.10;101898.25;5100523;28;20023;-48
2022/07/23 03:36:19;;;;;;;0.95;0.60;;;;;;;25.73;34.27;101903.53;5082166;28;20031;-53
2022/07/23 03:38:48;;;;;;;1.42;0.70;;;;;;;25.58;34.15;101869.97;5100212;28;20035;-48
2022/07/23 03:41:16;;;;;;;2.05;0.90;;;;;;;25.66;34.39;101892.88;5098530;28;20036;-52
2022/07/23 03:43:45;;;;;;;1.00;0.60;;;;;;;25.59;34.68;101903.28;5100498;28;20046;-53
2022/07/23 03:46:13;;;;;;;1.08;0.75;;;;;;;25.76;34.20;101900.13;5100845;28;20051;-53
2022/07/23 03:48:41;;;;;;;1.65;0.80;;;;;;;25.69;34.08;101906.09;5100868;28;20060;-48
2022/07/23 03:51:08;;;;;;;2.72;0.70;;;;;;;25.54;34.53;101907.53;5099637;28;20500;-48
2022/07/23 03:53:37;;;;;;;2.63;0.95;;;;;;;25.52;34.26;101908.38;5101226;28;20120;-49
2022/07/23 03:56:04;;;;;;;1.35;0.80;;;;;;;25.60;34.67;101904.16;5104410;28;20897;-46
2022/07/23 03:58:33;;;;;;;1.85;0.77;;;;;;;25.57;34.29;101902.34;5104810;28;20036;-49
2022/07/23 04:01:00;;;;;;;1.65;0.73;;;;;;;25.68;34.32;101902.59;5102920;28;20031;-50
2022/07/23 04:03:28;;;;;;;3.40;0.80;;;;;;;25.63;34.24;101894.63;5104231;28;20047;-52
2022/07/23 04:05:56;;;;;;;0.93;0.63;;;;;;;25.57;34.16;101883.97;5104102;28;20051;-48
2022/07/23 04:08:25;;;;;;;1.05;0.68;;;;;;;25.63;34.04;101893.72;5104750;28;20072;-52
2022/07/23 04:10:54;;;;;;;1.08;0.70;;;;;;;25.60;34.04;101888.38;5085234;28;20058;-50
2022/07/23 04:13:22;;;;;;;1.67;0.70;;;;;;;25.62;34.10;101894.56;5086361;28;20040;-52
2022/07/23 04:15:51;;;;;;;2.53;0.90;;;;;;;25.78;33.76;101891.38;5103625;28;20859;-48
2022/07/23 04:18:21;;;;;;;1.83;0.77;;;;;;;25.73;33.89;101897.41;5104282;28;20074;-52
2022/07/23 04:20:50;;;;;;;1.10;0.70;;;;;;;25.75;34.02;101899.22;5102760;28;20030;-49
2022/07/23 04:23:18;;;;;;;0.60;0.55;;;;;;;25.66;33.86;101903.38;5103569;28;20040;-49
2022/07/23 04:25:46;;;;;;;2.15;0.90;;;;;;;25.63;33.62;101902.50;5104220;28;20043;-49
2022/07/23 04:28:14;;;;;;;1.80;0.80;;;;;;;25.59;33.99;101903.28;5104314;28;20187;-50
2022/07/23 04:30:43;;;;;;;1.73;0.80;;;;;;;25.68;33.95;101912.19;5102948;28;20410;-47
2022/07/23 04:33:11;;;;;;;1.48;0.60;;;;;;;25.58;34.04;101892.72;5085494;28;20096;-48
2022/07/23 04:35:40;;;;;;;1.42;0.80;;;;;;;25.69;33.70;101900.84;5103803;28;20042;-47
2022/07/23 04:38:07;;;;;;;1.90;0.90;;;;;;;25.72;33.64;101901.81;5103690;28;20032;-52
2022/07/23 04:40:36;;;;;;;0.73;0.55;;;;;;;25.66;33.60;101904.28;5102441;28;20047;-50
2022/07/23 04:43:04;;;;;;;0.80;0.52;;;;;;;25.63;33.66;101899.88;5103766;28;20062;-49
2022/07/23 04:45:33;;;;;;;0.90;0.50;;;;;;;25.64;33.75;101895.50;5085403;28;20031;-54
2022/07/23 04:48:00;;;;;;;2.33;0.82;;;;;;;25.53;33.84;101890.00;5103147;28;20057;-49
2022/07/23 04:50:29;;;;;;;1.25;0.70;;;;;;;25.58;33.82;101905.84;5101853;28;20135;-53
2022/07/23 04:52:57;;;;;;;1.00;0.75;;;;;;;25.69;33.87;101904.38;5103792;28;21292;-49
2022/07/23 04:55:25;;;;;;;5.43;1.20;;;;;;;25.61;33.58;101896.31;5103576;28;20031;-49
2022/07/23 04:57:54;;;;;;;1.67;0.63;;;;;;;25.62;33.84;101908.59;5103555;28;20031;-46
2022/07/23 05:00:22;;;;;;;5.45;0.98;;;;;;;25.58;33.63;101903.22;5102108;28;20036;-49
2022/07/23 05:02:50;;;;;;;2.55;0.57;;;;;;;25.64;33.89;101916.50;5103505;28;20046;-47
2022/07/23 05:05:19;;;;;;;2.20;0.90;;;;;;;25.54;33.71;101918.06;5101628;28;20443;-47
2022/07/23 05:07:46;;;;;;;0.95;0.73;;;;;;;25.55;34.02;101914.56;5103339;28;20054;-52
2022/07/23 05:10:14;;;;;;;0.75;0.55;;;;;;;25.52;33.89;101914.50;5101919;28;20040;-45
2022/07/23 05:12:42;;;;;;;4.13;0.82;;;;;;;25.57;34.04;101915.50;5084954;28;20767;-49
2022/07/23 05:15:10;;;;;;;3.95;1.08;;;;;;;25.55;34.00;101917.19;5084631;28;20051;-46
2022/07/23 05:17:39;;;;;;;1.00;0.77;;;;;;;25.50;33.98;101908.31;5084796;28;20073;-48
2022/07/23 05:20:07;;;;;;;2.97;0.98;;;;;;;25.54;33.63;101920.69;5101588;28;20055;-50
2022/07/23 05:22:35;;;;;;;1.35;0.90;;;;;;;25.46;33.79;101919.66;5103323;28;20513;-51
2022/07/23 05:25:04;;;;;;;1.88;1.00;;;;;;;25.51;33.96;101922.38;5102703;28;20042;-49
2022/07/23 05:27:33;;;;;;;2.95;0.77;;;;;;;25.54;34.01;101925.06;5102983;28;20024;-49
2022/07/23 05:30:00;;;;;;;1.55;0.73;;;;;;;25.59;34.04;101932.19;5101233;28;20565;-50
2022/07/23 05:32:27;;;;;;;4.43;1.10;;;;;;;25.58;34.03;101926.88;5101902;28;20071;-48
2022/07/23 05:34:56;;;;;;;1.88;0.60;;;;;;;25.53;33.89;101924.16;5102913;28;20545;-49
2022/07/23 05:37:24;;;;;;;1.90;0.80;;;;;;;25.51;33.93;101925.88;5084031;28;20502;-50
2022/07/23 05:39:51;;;;;;;5.25;1.00;;;;;;;25.53;34.18;101912.78;5102117;28;20024;-48
2022/07/23 05:42:19;;;;;;;5.55;1.75;;;;;;;25.50;34.47;101923.22;5102424;28;20035;-49
2022/07/23 05:44:47;;;;;;;5.15;0.75;;;;;;;25.65;34.12;101920.03;5102261;28;20060;-56
2022/07/23 05:47:15;;;;;;;3.30;1.10;;;;;;;25.73;34.14;101921.94;5102506;28;20039;-47
2022/07/23 05:49:42;;;;;;;6.68;0.90;;;;;;;25.60;34.63;101918.19;5101841;28;20150;-48
2022/07/23 05:52:09;;;;;;;1.65;0.70;;;;;;;25.61;34.39;101905.94;5101680;28;20035;-45
2022/07/23 05:54:38;;;;;;;1.40;0.73;;;;;;;25.55;34.20;101890.94;5102795;28;20065;-45
2022/07/23 05:57:05;;;;;;;2.97;0.85;;;;;;;25.90;34.11;101927.56;5102409;28;20036;-49
2022/07/23 05:59:33;;;;;;;2.20;0.75;;;;;;;26.02;33.89;101931.28;5084338;28;20031;-51
2022/07/23 06:02:00;;;;;;;1.98;0.60;;;;;;;26.16;33.71;101923.69;5100745;28;20048;-54
2022/07/23 06:04:28;;;;;;;4.22;0.88;;;;;;;26.24;33.79;101919.44;5102467;28;20111;-52
2022/07/23 06:06:56;;;;;;;3.88;0.68;;;;;;;26.18;33.86;101925.50;5102511;28;20111;-46
2022/07/23 06:09:24;;;;;;;1.75;0.90;;;;;;;26.10;34.15;101906.03;5102260;28;20107;-46
2022/07/23 06:11:53;;;;;;;1.23;0.80;;;;;;;26.19;34.36;101922.00;5100585;28;20036;-45
2022/07/23 06:14:22;;;;;;;3.47;1.20;;;;;;;26.26;33.97;101925.63;5102701;28;20036;-50
2022/07/23 06:16:50;;;;;;;1.38;0.60;;;;;;;26.31;34.11;101909.97;5082757;28;20031;-49
2022/07/23 06:19:17;;;;;;;3.47;0.80;;;;;;;26.34;34.27;101909.97;5102228;28;20478;-49
2022/07/23 06:21:46;;;;;;;2.75;0.90;;;;;;;26.47;34.24;101921.63;5101128;28;20060;-44
2022/07/23 06:24:14;;;;;;;3.22;0.73;;;;;;;26.41;34.52;101922.41;5101833;28;20128;-44
2022/07/23 06:26:42;;;;;;;1.55;0.77;;;;;;;26.41;34.66;101919.78;5066830;28;20035;-46
2022/07/23 06:29:09;;;;;;;1.88;0.75;;;;;;;26.56;34.39;101920.91;5084349;28;20097;-48
2022/07/23 06:31:38;;;;;;;3.13;1.15;;;;;;;26.47;34.65;101913.72;5100244;28;20118;-48
2022/07/23 06:34:06;;;;;;;1.35;0.68;;;;;;;26.46;34.65;101925.13;5101814;28;20378;-54
2022/07/23 06:36:35;;;;;;;2.15;1.00;;;;;;;26.49;35.13;101922.53;5101366;28;20084;-51
2022/07/23 06:39:03;;;;;;;0.70;0.60;;;;;;;26.55;34.93;101930.56;5101935;28;20043;-48
2022/07/23 06:41:30;;;;;;;1.13;0.75;;;;;;;26.52;34.95;101922.59;5100129;28;20106;-44
2022/07/23 06:43:58;;;;;;;3.88;0.70;;;;;;;26.50;35.05;101917.28;5101253;28;20057;-44
2022/07/23 06:46:27;;;;;;;2.38;0.80;;;;;;;26.53;35.00;101919.13;5101646;28;20039;-46
2022/07/23 06:48:55;;;;;;;1.85;0.68;;;;;;;26.59;35.59;101932.34;5101159;28;20080;-45
2022/07/23 06:51:24;;;;;;;2.05;0.82;;;;;;;26.72;35.06;101925.56;5081302;28;20032;-55
2022/07/23 06:53:52;;;;;;;1.58;0.70;;;;;;;26.81;34.88;101933.63;5101238;28;20036;-54
2022/07/23 06:56:20;;;;;;;2.83;0.85;;;;;;;26.81;35.40;101925.72;5101325;28;20076;-49
2022/07/23 06:58:49;;;;;;;1.25;0.80;;;;;;;26.80;35.11;101908.19;5101403;28;20040;-44
2022/07/23 07:01:17;;;;;;;7.25;1.15;;;;;;;26.98;35.36;101931.28;5100357;28;20035;-52
2022/07/23 07:03:44;;;;;;;3.30;0.93;;;;;;;26.89;35.40;101933.75;5101138;28;20557;-49
2022/07/23 07:06:12;;;;;;;1.75;0.80;;;;;;;26.94;35.18;101928.59;5101792;28;20139;-43
2022/07/23 07:08:43;;;;;;;1.35;0.57;;;;;;;26.80;35.50;101916.09;5082820;28;20142;-43
2022/07/23 07:11:11;;;;;;;4.53;0.88;;;;;;;26.93;35.37;101942.59;5099909;28;20042;-44
2022/07/23 07:13:40;;;;;;;4.50;0.82;;;;;;;26.98;35.62;101933.00;5082901;28;20031;-45
2022/07/23 07:16:08;;;;;;;3.38;0.50;;;;;;;26.99;35.80;101932.16;5100739;28;20080;-44
2022/07/23 07:18:36;;;;;;;2.33;0.52;;;;;;;27.11;35.58;101931.47;5101635;28;20641;-51
2022/07/23 07:21:04;;;;;;;3.20;0.95;;;;;;;27.25;35.32;101939.56;5100463;28;20039;-50
2022/07/23 07:23:32;;;;;;;3.85;0.90;;;;;;;27.15;35.25;101934.16;5082821;28;20080;-49
2022/07/23 07:25:59;;;;;;;1.15;0.52;;;;;;;27.28;35.47;101942.25;5065694;28;20440;-44
2022/07/23 07:28:28;;;;;;;1.27;0.60;;;;;;;27.28;35.61;101935.22;5081787;28;20023;-45
2022/07/23 07:30:56;;;;;;;3.83;0.90;;;;;;;27.37;35.39;101933.59;5080852;28;20120;-49
2022/07/23 07:33:24;;;;;;;1.98;0.77;;;;;;;27.37;35.42;101923.06;5101064;28;20055;-44
2022/07/23 07:35:53;;;;;;;1.00;0.60;;;;;;;27.38;35.73;101936.25;5081920;28;20135;-46
2022/07/23 07:38:21;;;;;;;4.72;0.77;;;;;;;27.25;35.82;101932.53;5101096;28;20024;-53
2022/07/23 07:40:50;;;;;;;1.05;0.50;;;;;;;27.36;35.84;101942.38;5099568;28;20022;-45
2022/07/23 07:43:18;;;;;;;2.92;0.85;;;;;;;27.46;35.86;101938.16;5100869;28;20064;-48
2022/07/23 07:45:46;;;;;;;4.40;0.80;;;;;;;27.52;36.16;101933.84;5100944;28;20024;-51
2022/07/23 07:48:14;;;;;;;2.38;0.80;;;;;;;27.57;35.88;101937.41;5100856;28;20035;-49
2022/07/23 07:50:42;;;;;;;1.73;0.70;;;;;;;27.67;36.17;101948.94;5099245;28;20055;-44
2022/07/23 07:53:10;;;;;;;2.95;0.60;;;;;;;27.70;36.03;101938.44;5100917;28;20451;-45
2022/07/23 07:55:39;;;;;;;1.23;0.52;;;;;;;27.80;35.56;101933.31;5100602;28;20032;-51
2022/07/23 07:58:07;;;;;;;2.30;0.70;;;;;;;27.80;35.81;101941.22;5100928;28;20055;-52
2022/07/23 08:00:36;;;;;;;1.08;0.50;;;;;;;27.75;35.86;101936.75;5099130;28;20423;-48
2022/07/23 08:03:03;;;;;;;2.38;0.55;;;;;;;27.59;36.01;101927.75;5101126;28;20096;-55
2022/07/23 08:05:32;;;;;;;4.82;1.00;;;;;;;27.68;36.19;101928.75;5100821;28;20166;-47
2022/07/23 08:08:00;;;;;;;1.88;0.65;;;;;;;27.67;35.84;101930.50;5100656;28;20647;-48
2022/07/23 08:10:31;;;;;;;2.03;0.50;;;;;;;27.78;36.36;101937.69;5098601;28;20700;-45
2022/07/23 08:13:00;;;;;;;1.08;0.50;;;;;;;27.86;36.40;101942.16;5100943;28;20051;-44
2022/07/23 08:15:30;;;;;;;2.80;0.77;;;;;;;27.99;35.78;101937.03;5082368;28;20036;-47
2022/07/23 08:17:59;;;;;;;1.63;0.50;;;;;;;27.99;35.95;101944.94;5099558;28;20035;-44
2022/07/23 08:20:28;;;;;;;6.43;0.80;;;;;;;28.04;35.97;101938.84;5079932;28;20047;-47
2022/07/23 08:22:58;;;;;;;1.75;0.50;;;;;;;28.09;35.50;101940.66;5100339;28;20721;-48
2022/07/23 08:25:29;;;;;;;1.02;0.50;;;;;;;28.07;35.41;101937.97;5082492;28;20059;-45
2022/07/23 08:27:58;;;;;;;1.30;0.30;;;;;;;28.10;35.46;101935.41;5100576;28;20053;-43
2022/07/23 08:30:27;;;;;;;4.20;0.60;;;;;;;28.08;35.31;101942.41;5097756;28;20114;-46
2022/07/23 08:32:57;;;;;;;1.67;0.40;;;;;;;27.95;35.92;101940.50;5099731;28;20032;-44
2022/07/23 08:35:30;;;;;;;0.50;0.40;;;;;;;27.91;36.04;101936.94;5100465;28;20040;-47
2022/07/23 08:37:59;;;;;;;2.28;0.60;;;;;;;27.83;36.13;101930.69;5100258;28;20793;-50
2022/07/23 08:40:29;;;;;;;3.15;0.80;;;;;;;27.99;35.99;101945.81;5100632;28;20036;-44
2022/07/23 08:42:58;;;;;;;2.85;0.60;;;;;;;27.97;36.33;101955.47;5104017;28;20062;-46
2022/07/23 08:45:26;;;;;;;2.17;0.50;;;;;;;27.93;36.43;101942.22;5104650;28;20038;-54
2022/07/23 08:47:58;;;;;;;4.25;0.95;;;;;;;27.84;36.30;101941.25;5103999;28;20149;-53
2022/07/23 08:50:26;;;;;;;1.45;0.50;;;;;;;27.40;36.65;101952.06;5083375;28;20032;-43
2022/07/23 08:52:56;;;;;;;1.15;0.57;;;;;;;27.26;37.46;101941.34;5103660;28;20028;-46
2022/07/23 08:55:24;;;;;;;1.67;0.82;;;;;;;27.30;37.58;101943.16;5103867;28;20035;-51
2022/07/23 08:57:53;;;;;;;2.50;1.30;;;;;;;27.38;37.48;101946.78;5103863;28;20031;-55
2022/07/23 09:00:22;;;;;;;2.55;0.47;;;;;;;27.26;37.35;101947.47;5102045;28;20055;-49
2022/07/23 09:02:50;;;;;;;1.77;0.80;;;;;;;27.22;38.14;101947.44;5103690;28;20079;-51
2022/07/23 09:05:18;;;;;;;3.40;0.63;;;;;;;27.30;37.80;101949.31;5103228;28;20039;-45
2022/07/23 09:08:05;;;;;;;1.75;0.70;;;;;;;27.37;37.74;101945.00;5103429;28;20035;-47
2022/07/23 09:10:55;;;;;;;0.70;0.40;;;;;;;27.37;37.62;101937.09;5077035;28;20121;-49
2022/07/23 09:13:43;;;;;;;1.92;0.60;;;;;;;27.41;37.54;101938.94;5103442;28;20676;-46
2022/07/23 09:16:13;;;;;;;3.20;0.88;;;;;;;27.27;37.98;101932.59;5103055;28;20090;-49
2022/07/23 09:18:44;;;;;;;1.02;0.70;;;;;;;27.31;37.85;101937.00;5085539;28;20123;-45
2022/07/23 09:21:16;;;;;;;1.55;0.70;;;;;;;27.35;37.74;101924.78;5101295;28;20035;-54
2022/07/23 09:23:46;;;;;;;6.05;0.98;;;;;;;27.31;37.91;101937.00;5084648;28;20102;-50
2022/07/23 09:26:30;;;;;;;1.95;0.50;;;;;;;27.39;37.97;101942.38;5103077;28;20122;-55
2022/07/23 09:29:01;;;;;;;2.10;0.60;;;;;;;27.48;37.49;101946.94;5103199;28;20039;-55
2022/07/23 09:31:42;;;;;;;2.72;0.70;;;;;;;27.23;37.55;101925.50;5101250;28;20494;-44
2022/07/23 09:34:13;;;;;;;0.70;0.68;;;;;;;27.08;38.16;101940.22;5103150;28;20063;-47
2022/07/23 09:36:42;;;;;;;1.45;0.65;;;;;;;26.68;39.00;101944.78;5102995;28;20043;-50
2022/07/23 09:39:10;;;;;;;1.27;0.52;;;;;;;26.96;39.16;101958.47;5103261;28;20063;-49
2022/07/23 09:41:42;;;;;;;1.73;0.70;;;;;;;26.98;39.03;101948.81;5100641;28;20059;-52
2022/07/23 09:44:13;;;;;;;1.70;0.55;;;;;;;27.01;39.00;101946.22;5103169;28;20407;-50
2022/07/23 09:46:41;;;;;;;1.58;0.50;;;;;;;26.91;39.19;101957.50;5084946;28;20032;-51
2022/07/23 09:49:17;;;;;;;2.00;0.75;;;;;;;27.04;39.06;101953.31;5103054;28;20039;-50
2022/07/23 09:51:46;;;;;;;1.85;0.60;;;;;;;27.25;38.79;101955.38;5082787;28;20651;-51
2022/07/23 09:54:33;;;;;;;2.25;0.57;;;;;;;27.28;38.56;101961.56;5102463;28;20044;-50
2022/07/23 09:57:04;;;;;;;1.73;0.50;;;;;;;27.23;38.54;101946.56;5102472;28;20039;-51
2022/07/23 09:59:36;;;;;;;1.92;0.60;;;;;;;27.29;38.07;101937.00;5102590;28;20042;-52
2022/07/23 10:02:06;;;;;;;2.63;0.63;;;;;;;27.22;38.06;101955.31;5082091;28;20085;-50
2022/07/23 10:04:34;;;;;;;1.73;0.70;;;;;;;27.19;38.46;101948.28;5084234;28;20062;-52
2022/07/23 10:07:04;;;;;;;2.70;0.50;;;;;;;27.28;38.27;101944.91;5083559;28;20054;-50
2022/07/23 10:09:36;;;;;;;1.52;0.50;;;;;;;27.33;38.28;101966.03;5084073;28;20032;-49
2022/07/23 10:14:53;;;;;;;1.95;0.60;;;;;;;27.33;38.05;101968.66;5094192;28;20497;-51
2022/07/23 10:17:21;;;;;;;3.67;0.70;;;;;;;27.36;38.20;101969.59;5102045;28;20039;-48
2022/07/23 10:19:49;;;;;;;2.72;0.55;;;;;;;27.43;38.11;101955.66;5101978;28;20477;-48
2022/07/23 10:22:23;;;;;;;1.52;0.88;;;;;;;27.49;37.85;101959.25;5100282;28;20050;-45
2022/07/23 10:24:56;;;;;;;1.17;0.40;;;;;;;27.45;37.82;101968.81;5102516;28;20039;-50
2022/07/23 10:27:31;;;;;;;1.58;0.60;;;;;;;27.37;38.15;101962.59;5083685;28;20085;-54
2022/07/23 10:30:07;;;;;;;1.42;0.40;;;;;;;27.08;38.61;101969.19;5100986;28;20024;-45
2022/07/23 10:33:03;;;;;;;1.65;0.70;;;;;;;27.24;38.46;101970.28;5103288;28;20035;-53
2022/07/23 10:35:53;;;;;;;0.70;0.45;;;;;;;27.26;38.44;101967.69;5096682;28;20046;-46
2022/07/23 10:38:29;;;;;;;1.67;0.40;;;;;;;27.25;38.72;101965.91;5075321;28;20047;-44
2022/07/23 10:40:58;;;;;;;1.23;0.50;;;;;;;27.36;38.63;101960.81;5082276;28;20028;-44
2022/07/23 10:43:27;;;;;;;1.83;0.68;;;;;;;27.46;38.54;101959.22;5100946;28;20035;-50
2022/07/23 10:45:57;;;;;;;1.50;0.47;;;;;;;27.46;38.53;101953.97;5083738;28;20482;-48
2022/07/23 10:48:27;;;;;;;1.10;0.63;;;;;;;27.54;38.39;101962.84;5084034;28;20036;-44
2022/07/23 10:51:15;;;;;;;3.63;0.55;;;;;;;27.46;38.31;101967.13;5099707;28;20553;-45
2022/07/23 10:54:01;;;;;;;1.13;0.50;;;;;;;27.18;38.90;101970.22;5102027;28;20516;-49
2022/07/23 10:56:50;;;;;;;1.38;0.52;;;;;;;27.17;38.47;101960.53;5083353;28;20039;-44
2022/07/23 10:59:19;;;;;;;0.57;0.40;;;;;;;27.07;38.60;101961.22;5101573;28;20110;-48
2022/07/23 11:01:47;;;;;;;2.92;0.60;;;;;;;27.02;38.80;101970.84;5080776;28;20134;-47
2022/07/23 11:04:15;;;;;;;1.70;0.50;;;;;;;26.71;39.36;101968.53;5101138;28;20040;-55
2022/07/23 11:06:52;;;;;;;1.35;0.68;;;;;;;26.79;39.25;101966.97;5083838;28;20119;-46
2022/07/23 11:09:30;;;;;;;0.60;0.40;;;;;;;26.70;38.55;101956.22;5101800;28;20111;-45
2022/07/23 11:12:20;;;;;;;1.05;0.40;;;;;;;26.87;38.50;101964.47;5064286;28;20104;-45
2022/07/23 11:15:17;;;;;;;1.38;0.75;;;;;;;26.75;38.99;101959.84;5092701;28;20046;-45
2022/07/23 11:17:47;;;;;;;1.17;0.32;;;;;;;26.67;39.06;101966.69;5097419;28;20052;-45
2022/07/23 11:20:16;;;;;;;1.30;0.65;;;;;;;26.50;38.92;101946.22;5099376;28;20035;-53
2022/07/23 11:22:45;;;;;;;0.82;0.47;;;;;;;26.66;39.03;101963.19;5100939;28;20088;-49
2022/07/23 11:25:29;;;;;;;1.13;0.60;;;;;;;26.83;38.75;101950.34;5101232;28;20607;-46
2022/07/23 11:28:10;;;;;;;0.68;0.32;;;;;;;26.86;38.49;101961.78;5083175;28;20498;-52
2022/07/23 11:30:40;;;;;;;2.38;0.60;;;;;;;26.74;39.19;101959.78;5080943;28;20465;-45
2022/07/23 11:33:08;;;;;;;0.65;0.38;;;;;;;26.64;38.89;101961.41;5066017;28;20036;-50
2022/07/23 11:35:38;;;;;;;2.70;1.15;;;;;;;26.44;38.43;101956.66;5101123;28;20036;-47
2022/07/23 11:38:17;;;;;;;0.82;0.30;;;;;;;26.45;39.29;101954.91;5100792;28;20497;-48